createdAt,value
2023-02-03T09:27:27.537Z,8.52
2023-02-03T09:30:24.493Z,5.60
2023-02-03T09:33:21.388Z,4.65
2023-02-03T09:36:18.416Z,5.70
2023-02-03T09:39:15.899Z,5.80
2023-02-03T09:42:54.579Z,5.10
2023-02-03T09:45:51.725Z,6.10
2023-02-03T09:49:02.783Z,5.43
2023-02-03T09:52:22.907Z,2.92
2023-02-03T09:55:43.255Z,5.97
2023-02-03T09:58:40.124Z,4.82
2023-02-03T10:02:20.477Z,5.90
2023-02-03T10:05:52.063Z,3.35
2023-02-03T10:09:27.148Z,5.00
2023-02-03T10:12:52.363Z,3.30
2023-02-03T10:16:31.770Z,4.35
2023-02-03T10:20:14.525Z,3.08
2023-02-03T10:23:18.517Z,3.50
2023-02-03T10:26:23.855Z,3.53
2023-02-03T10:29:42.698Z,4.32
2023-02-03T10:32:39.544Z,4.07
2023-02-03T10:35:50.968Z,3.20
2023-02-03T10:39:10.410Z,3.30
2023-02-03T10:42:09.103Z,3.03
2023-02-03T10:45:07.074Z,1.60
2023-02-03T10:48:07.221Z,3.95
2023-02-03T10:51:04.334Z,3.35
2023-02-03T10:54:01.358Z,2.60
2023-02-03T10:57:13.398Z,6.38
2023-02-03T11:00:32.427Z,2.78
2023-02-03T11:03:29.902Z,3.30
2023-02-03T11:06:28.223Z,4.05
2023-02-03T11:09:51.656Z,2.35
2023-02-03T11:12:48.504Z,2.05
2023-02-03T11:15:57.017Z,2.05
2023-02-03T11:18:59.337Z,2.63
2023-02-03T11:21:56.965Z,3.00
2023-02-03T11:24:54.632Z,3.20
2023-02-03T11:27:52.408Z,2.60
2023-02-03T11:30:57.791Z,5.15
2023-02-03T11:34:03.523Z,1.63
2023-02-03T11:37:40.038Z,2.78
2023-02-03T11:40:38.627Z,2.15
2023-02-03T11:43:35.613Z,1.90
2023-02-03T11:46:41.484Z,3.25
2023-02-03T11:50:09.872Z,6.65
2023-02-03T11:53:33.123Z,2.45
2023-02-03T11:57:21.282Z,2.50
2023-02-03T12:00:36.990Z,1.27
2023-02-03T12:04:06.913Z,2.85
2023-02-03T12:07:52.222Z,2.00
2023-02-03T12:11:25.412Z,2.63
2023-02-03T12:15:06.915Z,3.40
2023-02-03T12:18:49.017Z,1.55
2023-02-03T12:21:56.424Z,1.30
2023-02-03T12:25:48.516Z,1.05
2023-02-03T12:28:50.446Z,1.35
2023-02-03T12:32:21.406Z,0.65
2023-02-03T12:38:37.679Z,0.90
2023-02-03T12:41:48.923Z,1.88
2023-02-03T12:45:09.727Z,1.13
2023-02-03T12:48:14.016Z,0.60
2023-02-03T12:51:28.113Z,1.50
2023-02-03T12:55:16.033Z,2.65
2023-02-03T12:58:27.661Z,0.88
2023-02-03T13:01:40.225Z,1.00
2023-02-03T13:05:01.776Z,1.48
2023-02-03T13:08:43.299Z,1.10
2023-02-03T13:11:54.186Z,1.45
2023-02-03T13:18:02.945Z,1.15
2023-02-03T13:20:59.971Z,1.00
2023-02-03T13:23:56.841Z,0.43
2023-02-03T13:27:34.999Z,1.02
2023-02-03T13:31:11.758Z,0.63
2023-02-03T13:34:46.436Z,1.70
2023-02-03T13:38:13.622Z,0.65
2023-02-03T13:41:25.323Z,0.80
2023-02-03T13:44:29.260Z,1.42
2023-02-03T13:47:31.244Z,0.80
2023-02-03T13:50:32.639Z,1.65
2023-02-03T13:53:39.785Z,0.70
2023-02-03T13:56:37.044Z,1.27
2023-02-03T13:59:45.692Z,0.82
2023-02-03T14:02:52.784Z,0.98
2023-02-03T14:05:54.964Z,0.95
2023-02-03T14:08:52.486Z,0.82
2023-02-03T14:12:12.619Z,0.82
2023-02-03T14:15:33.584Z,1.20
2023-02-03T14:18:43.654Z,0.60
2023-02-03T14:22:18.083Z,1.83
2023-02-03T14:25:19.537Z,0.85
2023-02-03T14:28:39.933Z,0.90
2023-02-03T14:32:08.018Z,1.75
2023-02-03T14:35:18.635Z,1.02
2023-02-03T14:38:16.233Z,0.80
2023-02-03T14:41:23.721Z,0.52
2023-02-03T14:44:34.012Z,1.58
2023-02-03T14:48:01.206Z,1.45
2023-02-03T14:51:24.871Z,1.67
2023-02-03T14:54:45.394Z,1.30
2023-02-03T14:57:52.810Z,1.60
2023-02-03T15:00:52.562Z,1.45
2023-02-03T15:04:11.076Z,4.13
2023-02-03T15:07:08.044Z,3.10
2023-02-03T15:10:14.899Z,1.45
2023-02-03T15:13:31.508Z,1.77
2023-02-03T15:16:28.450Z,1.05
2023-02-03T15:19:32.003Z,1.50
2023-02-03T15:22:30.489Z,1.75
2023-02-03T15:25:30.977Z,3.72
2023-02-03T15:28:30.111Z,1.90
2023-02-03T15:31:34.057Z,2.47
2023-02-03T15:34:44.796Z,1.15
2023-02-03T15:37:55.786Z,0.70
2023-02-03T15:40:57.985Z,1.20
2023-02-03T15:44:09.006Z,1.00
2023-02-03T15:47:29.404Z,1.45
2023-02-03T15:50:42.612Z,1.95
2023-02-03T15:54:06.379Z,1.58
2023-02-03T15:57:11.636Z,3.80
2023-02-03T16:00:32.101Z,3.47
2023-02-03T16:03:39.663Z,3.45
2023-02-03T16:06:40.418Z,2.95
2023-02-03T16:12:38.848Z,9.05
2023-02-03T16:15:36.517Z,8.55
2023-02-03T16:18:36.794Z,5.32
2023-02-03T16:21:43.547Z,2.58
2023-02-03T16:24:45.729Z,4.20
2023-02-03T16:27:46.523Z,10.05
2023-02-03T16:34:13.948Z,9.32
2023-02-03T16:37:52.265Z,6.00
2023-02-03T16:41:08.187Z,5.25
2023-02-03T16:44:23.451Z,7.95
2023-02-03T16:47:48.573Z,14.27
2023-02-03T16:50:58.175Z,6.18
2023-02-03T16:53:55.839Z,8.32
2023-02-03T16:56:52.685Z,3.83
2023-02-03T16:59:49.580Z,7.78
2023-02-03T17:02:46.441Z,8.23
2023-02-03T17:05:45.652Z,8.98
2023-02-03T17:08:42.658Z,3.40
2023-02-03T17:11:39.723Z,10.38
2023-02-03T17:14:36.600Z,6.47
2023-02-03T17:17:33.615Z,10.18
2023-02-03T17:20:30.456Z,10.13
2023-02-03T17:23:27.283Z,10.10
2023-02-03T17:26:24.174Z,11.77
2023-02-03T17:29:21.446Z,5.43
2023-02-03T17:32:18.369Z,6.38
2023-02-03T17:35:15.316Z,10.25
2023-02-03T17:38:15.924Z,11.10
2023-02-03T17:54:47.234Z,8.27
2023-02-03T17:57:44.069Z,9.75
2023-02-03T18:00:43.432Z,10.02
2023-02-03T18:03:40.235Z,14.02
2023-02-03T18:06:37.713Z,17.60
2023-02-03T18:09:34.572Z,8.18
2023-02-03T18:12:31.555Z,11.32
2023-02-03T18:15:28.401Z,12.80
2023-02-03T18:18:26.338Z,12.05
2023-02-03T18:21:25.275Z,8.80
2023-02-03T18:24:27.866Z,9.15
2023-02-03T18:27:24.728Z,8.50
2023-02-03T18:30:21.713Z,9.70
2023-02-03T18:33:18.695Z,15.45
2023-02-03T18:36:16.792Z,17.40
2023-02-03T18:39:15.177Z,14.85
2023-02-03T18:42:12.262Z,7.75
2023-02-03T18:45:10.717Z,13.10
2023-02-03T18:48:07.626Z,14.07
2023-02-03T18:51:09.936Z,15.98
2023-02-03T18:54:06.762Z,10.88
2023-02-03T18:57:04.640Z,10.35
2023-02-03T19:00:02.400Z,14.43
2023-02-03T19:02:59.419Z,12.25
2023-02-03T19:05:56.284Z,13.90
2023-02-03T19:08:53.295Z,6.95
2023-02-03T19:11:50.311Z,5.78
2023-02-03T19:14:47.288Z,17.88
2023-02-03T19:17:44.234Z,14.57
2023-02-03T19:20:43.867Z,10.20
2023-02-03T19:23:44.431Z,8.48
2023-02-03T19:26:41.739Z,10.13
2023-02-03T19:29:40.001Z,17.35
2023-02-03T19:32:36.952Z,10.25
2023-02-03T19:35:34.239Z,14.38
2023-02-03T19:38:31.122Z,13.10
2023-02-03T19:41:28.056Z,12.35
2023-02-03T19:44:25.596Z,8.80
2023-02-03T19:47:22.425Z,10.57
2023-02-03T19:50:19.883Z,7.55
2023-02-03T19:53:18.343Z,13.75
2023-02-03T19:56:15.170Z,10.77
2023-02-03T19:59:12.208Z,14.10
2023-02-03T20:02:14.400Z,12.25
2023-02-03T20:05:11.830Z,9.65
2023-02-03T20:08:13.043Z,11.05
2023-02-03T20:11:10.080Z,11.93
2023-02-03T20:14:07.005Z,10.95
2023-02-03T20:17:06.056Z,11.70
2023-02-03T20:20:03.948Z,9.13
2023-02-03T20:23:00.774Z,11.63
2023-02-03T20:25:58.280Z,6.82
2023-02-03T20:28:58.291Z,7.22
2023-02-03T20:31:55.669Z,9.57
2023-02-03T20:34:52.610Z,11.20
2023-02-03T20:37:49.924Z,11.07
2023-02-03T20:40:46.935Z,10.13
2023-02-03T20:43:44.382Z,9.82
2023-02-03T20:46:41.611Z,8.38
2023-02-03T20:49:38.583Z,10.77
2023-02-03T20:52:35.407Z,11.68
2023-02-03T20:55:32.241Z,10.45
2023-02-03T20:58:34.404Z,6.88
2023-02-03T21:01:31.230Z,12.65
2023-02-03T21:04:46.551Z,13.70
2023-02-03T21:07:43.422Z,7.95
2023-02-03T21:10:40.991Z,8.05
2023-02-03T21:13:38.722Z,14.05
2023-02-03T21:16:39.222Z,12.70
2023-02-03T21:19:36.242Z,8.80
2023-02-03T21:22:33.245Z,12.77
2023-02-03T21:25:33.717Z,14.52
2023-02-03T21:28:32.697Z,15.90
2023-02-03T21:31:35.101Z,20.13
2023-02-03T21:34:35.764Z,9.77
2023-02-03T21:37:41.383Z,7.32
2023-02-03T21:40:38.973Z,8.55
2023-02-03T21:43:36.402Z,9.57
2023-02-03T21:46:33.898Z,8.48
2023-02-03T21:49:35.600Z,11.73
2023-02-03T21:52:38.459Z,7.78
2023-02-03T21:55:36.624Z,7.07
2023-02-03T21:58:36.280Z,7.80
2023-02-03T22:01:37.142Z,9.15
2023-02-03T22:07:31.169Z,11.50
2023-02-03T22:10:28.135Z,9.63
2023-02-03T22:13:25.537Z,17.80
2023-02-03T22:16:22.774Z,16.42
2023-02-03T22:19:19.649Z,11.00
2023-02-03T22:22:16.454Z,16.77
2023-02-03T22:25:13.358Z,11.38
2023-02-03T22:28:10.277Z,10.30
2023-02-03T22:31:09.508Z,8.93
2023-02-03T22:34:06.429Z,11.40
2023-02-03T22:37:03.303Z,13.60
2023-02-03T22:40:00.142Z,12.10
2023-02-03T22:42:56.989Z,7.38
2023-02-03T22:45:54.757Z,10.98
2023-02-03T22:48:51.612Z,3.67
2023-02-03T22:51:48.426Z,6.30
2023-02-03T22:54:45.277Z,11.82
2023-02-03T22:57:42.083Z,12.90
2023-02-03T23:00:38.974Z,14.55
2023-02-03T23:03:35.798Z,12.43
2023-02-03T23:06:32.766Z,10.30
2023-02-03T23:09:29.639Z,10.82
2023-02-03T23:12:26.592Z,9.32
2023-02-03T23:15:23.498Z,10.45
2023-02-03T23:18:20.362Z,7.45
2023-02-03T23:21:17.210Z,8.77
2023-02-03T23:24:14.103Z,12.63
2023-02-03T23:27:11.215Z,10.95
2023-02-03T23:30:08.990Z,11.25
2023-02-03T23:33:05.836Z,9.57
2023-02-03T23:36:02.682Z,14.25
2023-02-03T23:38:59.515Z,9.40
2023-02-03T23:41:57.640Z,15.68
2023-02-03T23:44:55.891Z,10.60
2023-02-03T23:47:52.706Z,11.50
2023-02-03T23:50:49.569Z,9.38
2023-02-03T23:53:46.376Z,14.90
2023-02-03T23:56:43.206Z,8.88
2023-02-03T23:59:40.034Z,13.18
